Time;durP1;ratioP1;P1;durP2;ratioP2;P2;SDS_P1;SDS_P2;PMS_P1;PMS_P2;Temp;Humidity;BMP_temperature;BMP_pressure;BME280_temperature;BME280_humidity;BME280_pressure;Samples;Min_cycle;Max_cycle;Signal;HPM_P1;HPM_P2
2022/12/16 00:01:25;;;;;;;38.33;25.23;;;;;;;2.49;100.00;99910.39;1713292;83;21051;-76
2022/12/16 00:03:54;;;;;;;42.88;26.35;;;;;;;2.54;100.00;99913.27;1717513;83;20987;-77
2022/12/16 00:06:21;;;;;;;36.57;25.63;;;;;;;2.56;100.00;99917.06;1716578;83;20995;-76
2022/12/16 00:08:48;;;;;;;35.20;24.23;;;;;;;2.56;100.00;99922.38;1716701;82;21281;-76
2022/12/16 00:11:15;;;;;;;37.40;25.15;;;;;;;2.51;100.00;99932.24;1716185;82;21158;-83
2022/12/16 00:13:44;;;;;;;38.55;26.17;;;;;;;2.42;100.00;99932.06;1684976;83;21023;-84
2022/12/16 00:16:13;;;;;;;34.03;23.73;;;;;;;2.34;100.00;99929.55;1718753;82;21023;-83
2022/12/16 00:18:40;;;;;;;34.43;24.57;;;;;;;2.29;100.00;99933.78;1718534;83;21114;-83
2022/12/16 00:21:07;;;;;;;37.08;27.02;;;;;;;2.24;100.00;99942.32;1717855;83;21055;-84
2022/12/16 00:23:34;;;;;;;36.33;26.07;;;;;;;2.25;100.00;99945.30;1717331;83;21237;-83
2022/12/16 00:26:02;;;;;;;30.23;21.90;;;;;;;2.21;100.00;99937.91;1717034;82;20997;-83
2022/12/16 00:28:28;;;;;;;35.50;24.57;;;;;;;2.17;100.00;99941.42;1670134;85;21059;-82
2022/12/16 00:30:55;;;;;;;32.05;23.52;;;;;;;2.18;100.00;99937.77;1662568;85;21267;-84
2022/12/16 00:33:23;;;;;;;42.27;27.40;;;;;;;2.15;100.00;99944.78;1686644;83;21025;-82
2022/12/16 00:35:51;;;;;;;39.85;25.60;;;;;;;2.10;100.00;99936.06;1683099;85;21064;-82
2022/12/16 00:38:18;;;;;;;35.75;24.65;;;;;;;2.11;100.00;99928.94;1682241;83;21580;-88
2022/12/16 00:40:45;;;;;;;37.28;26.15;;;;;;;2.11;100.00;99934.24;1687985;83;21091;-77
2022/12/16 00:43:11;;;;;;;32.60;23.07;;;;;;;2.11;100.00;99932.91;1690896;84;21079;-73
2022/12/16 00:45:38;;;;;;;36.38;24.50;;;;;;;2.14;100.00;99939.16;1692057;84;21000;-78
2022/12/16 00:48:07;;;;;;;31.85;23.42;;;;;;;2.13;100.00;99934.35;1692204;84;21539;-79
2022/12/16 00:50:34;;;;;;;33.23;23.35;;;;;;;2.13;100.00;99930.38;1691561;83;21048;-75
2022/12/16 00:53:01;;;;;;;32.25;24.32;;;;;;;2.13;100.00;99934.35;1691791;84;21568;-73
2022/12/16 00:55:28;;;;;;;41.75;29.40;;;;;;;2.10;100.00;99937.39;1666861;84;21516;-75
2022/12/16 00:57:55;;;;;;;35.90;26.87;;;;;;;2.06;100.00;99942.73;1661334;86;21024;-75
2022/12/16 01:00:22;;;;;;;33.10;21.48;;;;;;;2.03;100.00;99947.10;1701575;83;21565;-75
2022/12/16 01:02:49;;;;;;;34.15;21.30;;;;;;;2.04;100.00;99942.63;1689468;84;21583;-74
2022/12/16 01:05:19;;;;;;;30.40;22.40;;;;;;;2.04;100.00;99939.97;1720680;83;21715;-75
2022/12/16 01:07:47;;;;;;;35.80;23.83;;;;;;;2.02;100.00;99942.80;1690422;84;20972;-77
2022/12/16 01:10:13;;;;;;;34.00;23.42;;;;;;;2.05;100.00;99944.27;1705253;83;20984;-75
2022/12/16 01:12:41;;;;;;;34.05;22.13;;;;;;;2.08;100.00;99941.23;1690407;84;21335;-80
2022/12/16 01:15:11;;;;;;;26.52;18.98;;;;;;;2.11;100.00;99941.67;1720889;83;21003;-77
2022/12/16 01:17:40;;;;;;;34.33;24.35;;;;;;;2.09;100.00;99940.23;1667770;84;20948;-84
2022/12/16 01:20:08;;;;;;;27.87;21.23;;;;;;;2.03;100.00;99931.69;1712286;83;21038;-72
2022/12/16 01:22:34;;;;;;;36.08;23.83;;;;;;;2.01;100.00;99936.38;1638970;86;21509;-82
2022/12/16 01:25:01;;;;;;;30.17;22.62;;;;;;;1.98;100.00;99941.54;1690575;84;21042;-80
2022/12/16 01:27:28;;;;;;;32.53;22.05;;;;;;;2.00;100.00;99947.99;1661557;85;21031;-77
2022/12/16 01:29:54;;;;;;;30.20;23.45;;;;;;;2.03;100.00;99954.23;1690850;84;21118;-77
2022/12/16 01:32:23;;;;;;;27.98;20.75;;;;;;;2.05;100.00;99970.80;1652704;86;21043;-80
2022/12/16 01:34:50;;;;;;;28.02;20.55;;;;;;;2.05;100.00;99972.13;1648587;85;21227;-79
2022/12/16 01:37:17;;;;;;;40.52;28.75;;;;;;;2.04;100.00;99958.03;1692048;84;21240;-78
2022/12/16 01:39:46;;;;;;;38.17;27.17;;;;;;;1.96;100.00;99965.30;1675307;85;21377;-78
2022/12/16 01:42:16;;;;;;;41.10;29.57;;;;;;;1.85;100.00;99976.38;1684365;83;21068;-79
2022/12/16 01:44:43;;;;;;;37.98;28.17;;;;;;;1.81;100.00;99980.42;1688998;84;21694;-83
